createdAt,value
2018-01-24T00:01:59.371Z,99.90
2018-01-24T00:04:25.632Z,99.90
2018-01-24T00:06:51.791Z,99.90
2018-01-24T00:09:18.801Z,99.90
2018-01-24T00:11:44.992Z,99.90
2018-01-24T00:14:11.199Z,99.90
2018-01-24T00:16:38.145Z,99.90
2018-01-24T00:19:05.104Z,99.90
2018-01-24T00:21:31.305Z,99.90
2018-01-24T00:23:57.573Z,99.90
2018-01-24T00:26:23.857Z,99.90
2018-01-24T00:28:50.073Z,99.90
2018-01-24T00:31:17.026Z,99.90
2018-01-24T00:33:43.245Z,99.90
2018-01-24T00:36:10.183Z,99.90
2018-01-24T00:38:36.365Z,99.90
2018-01-24T00:41:02.586Z,99.90
2018-01-24T00:43:28.846Z,99.90
2018-01-24T00:45:55.055Z,99.90
2018-01-24T00:48:21.280Z,99.90
2018-01-24T00:50:47.504Z,99.90
2018-01-24T00:53:13.667Z,99.90
2018-01-24T00:55:39.871Z,99.90
2018-01-24T00:58:06.024Z,99.90
2018-01-24T01:00:32.227Z,99.90
2018-01-24T01:02:58.482Z,99.90
2018-01-24T01:05:24.703Z,99.90
2018-01-24T01:07:50.875Z,99.90
2018-01-24T01:10:17.746Z,99.90
2018-01-24T01:12:43.925Z,99.90
2018-01-24T01:15:10.147Z,99.90
2018-01-24T01:17:36.387Z,99.90
2018-01-24T01:20:02.643Z,99.90
2018-01-24T01:22:28.807Z,99.90
2018-01-24T01:24:55.014Z,99.90
2018-01-24T01:27:21.240Z,99.90
2018-01-24T01:29:47.413Z,99.90
2018-01-24T01:32:13.622Z,99.90
2018-01-24T01:34:39.823Z,99.90
2018-01-24T01:37:06.046Z,99.90
2018-01-24T01:39:32.228Z,99.90
2018-01-24T01:41:58.422Z,99.90
2018-01-24T01:44:24.702Z,99.90
2018-01-24T01:46:50.967Z,99.90
2018-01-24T01:49:17.142Z,99.90
2018-01-24T01:51:43.425Z,99.90
2018-01-24T01:54:09.661Z,99.90
2018-01-24T01:56:35.827Z,99.90
2018-01-24T01:59:02.047Z,99.90
2018-01-24T02:01:28.312Z,99.90
2018-01-24T02:03:55.187Z,99.90
2018-01-24T02:06:21.429Z,99.90
2018-01-24T02:08:47.645Z,99.90
2018-01-24T02:11:13.796Z,99.90
2018-01-24T02:13:39.949Z,99.90
2018-01-24T02:16:06.194Z,99.90
2018-01-24T02:18:33.114Z,99.90
2018-01-24T02:21:00.054Z,99.90
2018-01-24T02:23:26.203Z,99.90
2018-01-24T02:25:52.413Z,99.90
2018-01-24T02:28:19.380Z,99.90
2018-01-24T02:30:46.313Z,99.90
2018-01-24T02:33:13.198Z,99.90
2018-01-24T02:35:39.354Z,99.90
2018-01-24T02:38:05.536Z,99.90
2018-01-24T02:40:32.481Z,99.90
2018-01-24T02:42:58.698Z,99.90
2018-01-24T02:45:25.635Z,99.90
2018-01-24T02:47:51.794Z,99.90
2018-01-24T02:50:17.992Z,99.90
2018-01-24T02:52:44.951Z,99.90
2018-01-24T02:55:11.903Z,99.90
2018-01-24T02:57:38.127Z,99.90
2018-01-24T03:00:05.139Z,99.90
2018-01-24T03:02:31.324Z,99.90
2018-01-24T03:04:57.570Z,99.90
2018-01-24T03:07:23.722Z,99.90
2018-01-24T03:09:50.662Z,99.90
2018-01-24T03:12:16.919Z,99.90
2018-01-24T03:14:43.840Z,99.90
2018-01-24T03:17:10.781Z,99.90
2018-01-24T03:19:37.741Z,99.90
2018-01-24T03:22:04.779Z,99.90
2018-01-24T03:24:31.705Z,99.90
2018-01-24T03:26:57.910Z,99.90
2018-01-24T03:29:24.114Z,99.90
2018-01-24T03:31:50.274Z,99.90
2018-01-24T03:34:16.486Z,99.90
2018-01-24T03:36:42.636Z,99.90
2018-01-24T03:39:08.795Z,99.90
2018-01-24T03:41:35.683Z,99.90
2018-01-24T03:44:01.828Z,99.90
2018-01-24T03:46:28.029Z,99.90
2018-01-24T03:48:54.185Z,99.90
2018-01-24T03:51:20.369Z,99.90
2018-01-24T03:53:47.319Z,99.90
2018-01-24T03:56:13.564Z,99.90
2018-01-24T03:58:39.734Z,99.90
2018-01-24T04:01:05.954Z,99.90
2018-01-24T04:03:32.135Z,99.90
2018-01-24T04:05:59.126Z,99.90
2018-01-24T04:08:25.314Z,99.90
2018-01-24T04:10:51.490Z,99.90
2018-01-24T04:13:17.674Z,99.90
2018-01-24T04:15:43.871Z,99.90
2018-01-24T04:18:10.817Z,99.90
2018-01-24T04:20:37.783Z,99.90
2018-01-24T04:23:03.946Z,99.90
2018-01-24T04:25:30.114Z,99.90
2018-01-24T04:27:56.296Z,99.90
2018-01-24T04:30:22.490Z,99.90
2018-01-24T04:32:49.420Z,99.90
2018-01-24T04:35:16.354Z,99.90
2018-01-24T04:37:43.331Z,99.90
2018-01-24T04:40:09.471Z,99.90
2018-01-24T04:42:35.576Z,99.90
2018-01-24T04:45:01.779Z,99.90
2018-01-24T04:47:27.962Z,99.90
2018-01-24T04:49:54.156Z,99.90
2018-01-24T04:52:21.054Z,99.90
2018-01-24T04:54:47.242Z,99.90
2018-01-24T04:57:13.420Z,99.90
2018-01-24T04:59:40.427Z,99.90
2018-01-24T05:02:06.675Z,99.90
2018-01-24T05:04:32.905Z,99.90
2018-01-24T05:06:59.176Z,99.90
2018-01-24T05:09:26.090Z,99.90
2018-01-24T05:11:52.300Z,99.90
2018-01-24T05:14:18.517Z,99.90
2018-01-24T05:16:44.830Z,99.90
2018-01-24T05:19:11.165Z,99.90
2018-01-24T05:21:40.342Z,99.90
2018-01-24T05:24:07.367Z,99.90
2018-01-24T05:26:34.349Z,99.90
2018-01-24T05:29:00.509Z,99.90
2018-01-24T05:31:26.712Z,99.90
2018-01-24T05:33:53.800Z,99.90
2018-01-24T05:36:26.464Z,99.90
2018-01-24T05:41:51.502Z,99.90
2018-01-24T05:44:18.493Z,99.90
2018-01-24T05:46:44.678Z,99.90
2018-01-24T05:49:10.885Z,99.90
2018-01-24T05:51:37.089Z,99.90
2018-01-24T05:54:03.321Z,99.90
2018-01-24T05:56:29.477Z,99.90
2018-01-24T05:58:57.487Z,99.90
2018-01-24T06:01:23.700Z,99.90
2018-01-24T06:03:49.933Z,99.90
2018-01-24T06:06:16.863Z,99.90
2018-01-24T06:08:43.102Z,99.90
2018-01-24T06:11:09.290Z,99.90
2018-01-24T06:13:35.458Z,99.90
2018-01-24T06:16:01.665Z,99.90
2018-01-24T06:18:27.797Z,99.90
2018-01-24T06:20:54.038Z,99.90
2018-01-24T06:23:20.193Z,99.90
2018-01-24T06:25:47.156Z,99.90
2018-01-24T06:28:13.286Z,99.90
2018-01-24T06:30:39.566Z,99.90
2018-01-24T06:33:06.039Z,99.90
2018-01-24T06:35:32.252Z,99.90
2018-01-24T06:37:59.218Z,99.90
2018-01-24T06:40:25.406Z,99.90
2018-01-24T06:42:52.316Z,99.90
2018-01-24T06:45:18.552Z,99.90
2018-01-24T06:47:44.749Z,99.90
2018-01-24T06:50:10.909Z,99.90
2018-01-24T06:52:37.116Z,99.90
2018-01-24T06:55:03.391Z,99.90
2018-01-24T06:57:30.359Z,99.90
2018-01-24T06:59:57.341Z,99.90
2018-01-24T07:02:23.570Z,99.90
2018-01-24T07:04:49.806Z,99.90
2018-01-24T07:07:15.986Z,99.90
2018-01-24T07:09:42.936Z,99.90
2018-01-24T07:12:21.400Z,99.90
2018-01-24T07:14:47.556Z,99.90
2018-01-24T07:17:14.432Z,99.90
2018-01-24T07:19:40.636Z,99.90
2018-01-24T07:22:07.583Z,99.90
2018-01-24T07:24:34.531Z,99.90
2018-01-24T07:27:01.449Z,99.90
2018-01-24T07:29:28.392Z,99.90
2018-01-24T07:31:54.619Z,99.90
2018-01-24T07:34:20.845Z,99.90
2018-01-24T07:36:47.062Z,99.90
2018-01-24T07:39:13.275Z,99.90
2018-01-24T07:41:39.494Z,99.90
2018-01-24T07:44:05.726Z,99.90
2018-01-24T07:46:31.908Z,99.90
2018-01-24T07:48:58.871Z,99.90
2018-01-24T07:51:25.145Z,99.90
2018-01-24T07:53:51.425Z,99.90
2018-01-24T07:56:17.553Z,99.90
2018-01-24T07:58:44.791Z,99.90
2018-01-24T08:01:11.692Z,99.90
2018-01-24T08:03:37.924Z,99.90
2018-01-24T08:06:04.357Z,99.90
2018-01-24T08:08:30.555Z,99.90
2018-01-24T08:10:56.776Z,99.90
2018-01-24T08:13:23.091Z,99.90
2018-01-24T08:15:49.282Z,99.90
2018-01-24T08:18:15.454Z,99.90
2018-01-24T08:20:41.653Z,99.90
2018-01-24T08:23:07.834Z,99.90
2018-01-24T08:25:34.187Z,99.90
2018-01-24T08:28:00.379Z,99.90
2018-01-24T08:30:26.614Z,99.90
2018-01-24T08:32:52.889Z,99.90
2018-01-24T08:35:19.162Z,99.90
2018-01-24T08:37:45.393Z,99.90
2018-01-24T08:40:11.660Z,99.90
2018-01-24T08:42:37.906Z,99.90
2018-01-24T08:45:04.113Z,99.90
2018-01-24T08:47:30.323Z,99.90
2018-01-24T08:49:56.504Z,99.90
2018-01-24T08:52:23.497Z,99.90
2018-01-24T08:54:49.609Z,99.90
2018-01-24T08:57:15.842Z,99.90
2018-01-24T08:59:42.047Z,99.90
2018-01-24T09:02:08.260Z,99.90
2018-01-24T09:04:35.177Z,99.90
2018-01-24T09:07:01.327Z,99.90
2018-01-24T09:09:27.467Z,99.90
2018-01-24T09:11:54.358Z,99.90
2018-01-24T09:14:20.543Z,99.90
2018-01-24T09:16:46.670Z,99.90
2018-01-24T09:19:13.578Z,99.90
2018-01-24T09:21:40.521Z,99.90
2018-01-24T09:24:07.463Z,99.90
2018-01-24T09:26:33.620Z,99.90
2018-01-24T09:29:00.547Z,99.90
2018-01-24T09:31:26.789Z,99.90
2018-01-24T09:33:53.742Z,99.90
2018-01-24T09:36:20.663Z,99.90
2018-01-24T09:38:46.889Z,99.90
2018-01-24T09:41:13.093Z,99.90
2018-01-24T09:43:39.242Z,99.90
2018-01-24T09:46:05.465Z,99.90
2018-01-24T09:48:31.663Z,99.90
2018-01-24T09:50:57.815Z,99.90
2018-01-24T09:53:25.024Z,99.90
2018-01-24T09:55:51.189Z,99.90
2018-01-24T09:58:17.316Z,99.90
2018-01-24T10:00:43.543Z,99.90
2018-01-24T10:03:09.807Z,99.90
2018-01-24T10:05:36.824Z,99.90
2018-01-24T10:08:03.022Z,99.90
2018-01-24T10:10:29.222Z,99.90
2018-01-24T10:12:56.166Z,99.90
2018-01-24T10:15:23.093Z,99.90
2018-01-24T10:17:49.325Z,99.90
2018-01-24T10:20:16.268Z,99.90
2018-01-24T10:22:43.198Z,99.90
2018-01-24T10:25:09.389Z,99.90
2018-01-24T10:27:35.625Z,99.90
2018-01-24T10:30:01.769Z,99.90
2018-01-24T10:32:27.944Z,99.90
2018-01-24T10:34:54.150Z,99.90
2018-01-24T10:37:21.490Z,99.90
2018-01-24T10:39:47.672Z,99.90
2018-01-24T10:42:13.936Z,99.90
2018-01-24T10:44:40.086Z,99.90
2018-01-24T10:47:06.312Z,99.90
2018-01-24T10:49:33.332Z,99.90
2018-01-24T10:51:59.497Z,99.90
2018-01-24T10:54:26.414Z,99.90
2018-01-24T10:56:52.599Z,99.90
2018-01-24T10:59:18.769Z,99.90
2018-01-24T11:01:44.952Z,98.70
2018-01-24T11:04:11.122Z,99.90
2018-01-24T11:06:37.332Z,99.90
2018-01-24T11:09:03.639Z,99.40
2018-01-24T11:11:29.813Z,96.10
2018-01-24T11:13:56.057Z,99.90
2018-01-24T11:16:22.964Z,99.90
2018-01-24T11:18:49.178Z,99.90
2018-01-24T11:21:15.371Z,99.90
2018-01-24T11:23:42.285Z,97.10
2018-01-24T11:26:08.521Z,97.10
2018-01-24T11:28:35.391Z,99.90
2018-01-24T11:31:01.595Z,99.90
2018-01-24T11:33:28.523Z,99.90
2018-01-24T11:35:54.722Z,99.90
2018-01-24T11:38:20.932Z,99.90
2018-01-24T11:40:47.059Z,99.90
2018-01-24T11:43:13.292Z,99.90
2018-01-24T11:45:39.451Z,99.90
2018-01-24T11:48:05.719Z,99.90
2018-01-24T11:50:32.716Z,99.90
2018-01-24T11:52:58.844Z,99.90
2018-01-24T11:55:25.012Z,99.90
2018-01-24T11:57:52.040Z,99.90
2018-01-24T12:00:18.220Z,99.90
2018-01-24T12:02:44.382Z,99.90
2018-01-24T12:05:10.583Z,99.90
2018-01-24T12:07:36.767Z,99.90
2018-01-24T12:10:03.715Z,99.90
2018-01-24T12:12:30.669Z,99.90
2018-01-24T12:14:57.600Z,99.90
2018-01-24T12:17:23.778Z,99.90
2018-01-24T12:19:50.008Z,99.90
2018-01-24T12:22:16.233Z,99.90
2018-01-24T12:24:42.447Z,99.90
2018-01-24T12:27:10.596Z,98.00
2018-01-24T12:29:37.520Z,91.90
2018-01-24T12:32:04.530Z,91.60
2018-01-24T12:34:30.729Z,90.80
2018-01-24T12:36:57.886Z,92.30
2018-01-24T12:39:24.067Z,89.00
2018-01-24T12:41:50.226Z,90.50
2018-01-24T12:44:17.101Z,89.00
2018-01-24T12:46:43.354Z,89.10
2018-01-24T12:49:10.665Z,82.60
2018-01-24T12:51:36.885Z,81.10
2018-01-24T12:54:04.179Z,87.70
2018-01-24T12:56:30.378Z,91.80
2018-01-24T12:58:56.626Z,94.10
2018-01-24T13:01:22.872Z,96.90
2018-01-24T13:03:49.148Z,97.10
2018-01-24T13:06:15.459Z,98.70
2018-01-24T13:08:41.627Z,99.40
2018-01-24T13:11:07.825Z,99.10
2018-01-24T13:13:34.767Z,99.70
2018-01-24T13:16:02.465Z,99.10
2018-01-24T13:18:28.653Z,99.10
2018-01-24T13:20:55.516Z,99.80
2018-01-24T13:23:21.747Z,99.80
2018-01-24T13:25:47.895Z,99.80
2018-01-24T13:28:14.051Z,99.90
2018-01-24T13:30:40.223Z,99.90
2018-01-24T13:33:07.092Z,99.90
2018-01-24T13:35:33.316Z,99.90
2018-01-24T13:37:59.504Z,99.90
2018-01-24T13:40:26.496Z,99.90
2018-01-24T13:42:52.730Z,99.90
2018-01-24T13:45:18.972Z,99.90
2018-01-24T13:47:45.171Z,99.90
2018-01-24T13:50:11.435Z,99.90
2018-01-24T13:52:38.375Z,99.90
2018-01-24T13:55:04.553Z,99.90
2018-01-24T13:57:30.734Z,99.90
2018-01-24T13:59:56.942Z,99.90
2018-01-24T14:02:23.088Z,99.90
2018-01-24T14:04:49.244Z,99.90
2018-01-24T14:07:16.180Z,99.90
2018-01-24T14:09:42.337Z,99.90
2018-01-24T14:12:08.553Z,99.70
2018-01-24T14:14:35.512Z,99.90
2018-01-24T14:17:01.731Z,99.90
2018-01-24T14:19:27.935Z,99.90
2018-01-24T14:21:54.118Z,99.60
2018-01-24T14:24:20.305Z,99.20
2018-01-24T14:26:47.243Z,99.90
2018-01-24T14:29:14.437Z,99.90
2018-01-24T14:31:40.629Z,99.90
2018-01-24T14:34:07.526Z,99.90
2018-01-24T14:36:33.727Z,99.90
2018-01-24T14:38:59.857Z,99.90
2018-01-24T14:41:26.055Z,99.90
2018-01-24T14:43:53.008Z,99.90
2018-01-24T14:46:19.953Z,99.90
2018-01-24T14:48:46.517Z,99.90
2018-01-24T14:51:12.714Z,99.90
2018-01-24T14:53:38.962Z,99.90
2018-01-24T14:56:05.172Z,99.90
2018-01-24T14:58:31.415Z,99.90
2018-01-24T15:00:57.673Z,99.90
2018-01-24T15:03:23.906Z,99.90
2018-01-24T15:05:50.107Z,99.90
2018-01-24T15:08:16.317Z,99.90
2018-01-24T15:10:42.524Z,99.90
2018-01-24T15:13:09.460Z,99.90
2018-01-24T15:15:35.626Z,99.90
2018-01-24T15:18:01.826Z,99.90
2018-01-24T15:20:28.731Z,99.90
2018-01-24T15:22:54.952Z,99.90
2018-01-24T15:25:21.158Z,99.90
2018-01-24T15:27:47.307Z,99.90
2018-01-24T15:30:13.469Z,99.90
2018-01-24T15:32:39.679Z,99.90
2018-01-24T15:35:05.919Z,99.90
2018-01-24T15:37:32.068Z,99.90
2018-01-24T15:39:59.104Z,99.90
2018-01-24T15:42:26.099Z,99.90
2018-01-24T15:44:52.328Z,99.90
2018-01-24T15:47:18.528Z,99.90
2018-01-24T15:49:45.468Z,99.90
2018-01-24T15:52:12.434Z,99.90
2018-01-24T15:54:39.505Z,99.90
2018-01-24T15:57:05.658Z,99.90
2018-01-24T15:59:31.871Z,99.90
2018-01-24T16:01:58.103Z,99.90
2018-01-24T16:04:24.254Z,99.90
2018-01-24T16:06:50.511Z,99.90
2018-01-24T16:09:16.734Z,99.90
2018-01-24T16:11:43.642Z,99.90
2018-01-24T16:14:09.846Z,99.90
2018-01-24T16:16:36.088Z,99.90
2018-01-24T16:19:02.366Z,99.90
2018-01-24T16:21:29.271Z,99.90
2018-01-24T16:23:55.493Z,99.90
2018-01-24T16:26:21.755Z,99.90
2018-01-24T16:28:48.765Z,99.90
2018-01-24T16:31:14.966Z,99.90
2018-01-24T16:33:41.173Z,99.90
2018-01-24T16:36:07.418Z,99.90
2018-01-24T16:38:33.603Z,99.90
2018-01-24T16:40:59.800Z,99.90
2018-01-24T16:43:25.991Z,99.90
2018-01-24T16:45:52.283Z,99.90
2018-01-24T16:48:19.234Z,99.90
2018-01-24T16:50:46.206Z,99.90
2018-01-24T16:53:12.449Z,99.90
2018-01-24T16:55:38.675Z,99.90
2018-01-24T16:58:04.897Z,99.90
2018-01-24T17:00:31.179Z,99.90
2018-01-24T17:02:57.404Z,99.90
2018-01-24T17:05:23.577Z,99.90
2018-01-24T17:07:49.817Z,99.90
2018-01-24T17:10:15.982Z,99.90
2018-01-24T17:12:42.204Z,99.90
2018-01-24T17:15:08.433Z,99.90
2018-01-24T17:17:34.621Z,99.90
2018-01-24T17:20:00.854Z,99.90
2018-01-24T17:22:27.090Z,99.90
2018-01-24T17:24:53.319Z,99.90
2018-01-24T17:27:19.489Z,99.90
2018-01-24T17:29:45.674Z,99.90
2018-01-24T17:32:12.174Z,99.90
2018-01-24T17:34:38.483Z,99.90
2018-01-24T17:37:04.685Z,99.90
2018-01-24T17:39:30.910Z,99.90
2018-01-24T17:41:57.120Z,99.90
2018-01-24T17:44:23.369Z,99.90
2018-01-24T17:46:49.595Z,99.90
2018-01-24T17:49:15.761Z,99.90
2018-01-24T17:51:42.230Z,99.90
2018-01-24T17:54:08.475Z,99.90
2018-01-24T17:56:34.628Z,99.90
2018-01-24T17:59:00.884Z,99.90
2018-01-24T18:01:27.983Z,99.90
2018-01-24T18:03:54.190Z,99.90
2018-01-24T18:06:20.455Z,99.90
2018-01-24T18:08:46.732Z,99.90
2018-01-24T18:11:13.701Z,99.90
2018-01-24T18:13:39.912Z,99.90
2018-01-24T18:16:06.156Z,99.90
2018-01-24T18:18:32.443Z,99.90
2018-01-24T18:20:58.622Z,99.90
2018-01-24T18:23:24.836Z,99.90
2018-01-24T18:25:51.081Z,99.90
2018-01-24T18:28:17.291Z,99.90
2018-01-24T18:30:43.550Z,99.90
2018-01-24T18:33:09.719Z,99.90
2018-01-24T18:35:36.684Z,99.90
2018-01-24T18:38:02.960Z,99.90
2018-01-24T18:40:29.829Z,99.90
2018-01-24T18:42:56.038Z,99.90
2018-01-24T18:45:22.273Z,99.90
2018-01-24T18:47:48.455Z,99.90
2018-01-24T18:50:14.688Z,99.90
2018-01-24T18:52:40.977Z,99.90
2018-01-24T18:55:07.940Z,99.90
2018-01-24T18:57:34.137Z,99.90
2018-01-24T19:00:00.354Z,99.90
2018-01-24T19:02:26.602Z,99.90
2018-01-24T19:04:53.570Z,99.90
2018-01-24T19:07:19.817Z,99.90
2018-01-24T19:09:46.014Z,99.90
2018-01-24T19:12:12.975Z,99.90
2018-01-24T19:14:39.191Z,99.90
2018-01-24T19:17:06.142Z,99.90
2018-01-24T19:19:33.072Z,99.90
2018-01-24T19:21:59.334Z,99.90
2018-01-24T19:24:25.515Z,99.90
2018-01-24T19:26:52.446Z,99.90
2018-01-24T19:29:18.640Z,99.90
2018-01-24T19:31:44.851Z,99.90
2018-01-24T19:34:11.047Z,99.90
2018-01-24T19:36:37.210Z,99.90
2018-01-24T19:39:03.465Z,99.90
2018-01-24T19:41:29.608Z,99.90
2018-01-24T19:43:55.808Z,99.90
2018-01-24T19:46:22.022Z,99.90
2018-01-24T19:48:48.290Z,99.90
2018-01-24T19:51:14.465Z,99.90
2018-01-24T19:53:41.457Z,99.90
2018-01-24T19:56:07.718Z,99.90
2018-01-24T19:58:34.688Z,99.90
2018-01-24T20:01:00.842Z,99.90
2018-01-24T20:03:27.071Z,99.90
2018-01-24T20:05:53.311Z,99.90
2018-01-24T20:08:19.479Z,99.90
2018-01-24T20:10:45.744Z,99.90
2018-01-24T20:13:11.893Z,99.90
2018-01-24T20:15:38.052Z,99.90
2018-01-24T20:18:04.980Z,99.90
2018-01-24T20:20:31.145Z,99.90
2018-01-24T20:22:58.138Z,99.90
2018-01-24T20:25:24.365Z,99.90
2018-01-24T20:27:50.674Z,99.90
2018-01-24T20:30:17.874Z,99.90
2018-01-24T20:32:44.049Z,99.90
2018-01-24T20:35:10.284Z,99.90
2018-01-24T20:37:36.482Z,99.90
2018-01-24T20:40:03.409Z,99.90
2018-01-24T20:42:29.616Z,99.90
2018-01-24T20:44:55.820Z,99.90
2018-01-24T20:47:21.985Z,99.90
2018-01-24T20:49:48.924Z,99.90
2018-01-24T20:52:15.904Z,99.90
2018-01-24T20:54:42.859Z,99.90
2018-01-24T20:57:09.882Z,99.90
2018-01-24T20:59:36.803Z,99.90
2018-01-24T21:02:03.022Z,99.90
2018-01-24T21:04:29.220Z,99.90
2018-01-24T21:06:55.412Z,99.90
2018-01-24T21:09:21.650Z,99.90
2018-01-24T21:11:48.590Z,99.90
2018-01-24T21:14:15.565Z,99.90
2018-01-24T21:16:41.789Z,99.90
2018-01-24T21:19:08.031Z,99.90
2018-01-24T21:21:34.202Z,99.90
2018-01-24T21:24:00.439Z,99.90
2018-01-24T21:26:26.594Z,99.90
2018-01-24T21:29:05.019Z,99.90
2018-01-24T21:31:43.431Z,99.90
2018-01-24T21:34:21.853Z,99.90
2018-01-24T21:36:56.876Z,99.90
2018-01-24T21:39:23.080Z,99.90
2018-01-24T21:41:50.032Z,99.90
2018-01-24T21:44:16.959Z,99.90
2018-01-24T21:46:43.128Z,99.90
2018-01-24T21:49:09.303Z,99.90
2018-01-24T21:51:35.456Z,99.90
2018-01-24T21:54:02.440Z,99.90
2018-01-24T21:56:28.714Z,99.90
2018-01-24T21:58:54.883Z,99.90
2018-01-24T22:01:21.068Z,99.90
2018-01-24T22:03:47.310Z,99.90
2018-01-24T22:06:14.272Z,99.90
2018-01-24T22:08:41.209Z,99.90
2018-01-24T22:11:08.184Z,99.90
2018-01-24T22:13:34.368Z,99.90
2018-01-24T22:16:00.533Z,99.90
2018-01-24T22:18:26.734Z,99.90
2018-01-24T22:20:53.670Z,99.90
2018-01-24T22:23:20.587Z,99.90
2018-01-24T22:25:46.786Z,99.90
2018-01-24T22:28:13.041Z,99.90
2018-01-24T22:30:39.223Z,99.90
2018-01-24T22:33:05.394Z,99.90
2018-01-24T22:35:31.605Z,99.90
2018-01-24T22:37:57.805Z,99.90
2018-01-24T22:40:23.921Z,99.90
2018-01-24T22:42:50.882Z,99.90
2018-01-24T22:45:17.102Z,99.90
2018-01-24T22:47:43.309Z,99.90
2018-01-24T22:50:10.220Z,99.90
2018-01-24T22:52:36.352Z,99.90
2018-01-24T22:55:02.525Z,99.90
2018-01-24T22:57:28.684Z,99.90
2018-01-24T22:59:54.837Z,99.90
2018-01-24T23:02:21.028Z,99.90
2018-01-24T23:04:47.235Z,99.90
2018-01-24T23:07:13.451Z,99.90
2018-01-24T23:09:40.420Z,99.90
2018-01-24T23:12:11.703Z,99.90
2018-01-24T23:14:37.916Z,99.90
2018-01-24T23:17:04.162Z,99.90
2018-01-24T23:19:30.411Z,99.90
2018-01-24T23:21:56.613Z,99.90
2018-01-24T23:24:22.866Z,99.90
2018-01-24T23:26:49.886Z,99.90
2018-01-24T23:29:16.170Z,99.90
2018-01-24T23:31:43.058Z,99.90
2018-01-24T23:34:09.313Z,99.90
2018-01-24T23:36:35.498Z,99.90
2018-01-24T23:39:01.708Z,99.90
2018-01-24T23:41:27.915Z,99.90
2018-01-24T23:43:54.877Z,99.90
2018-01-24T23:46:21.052Z,99.90
2018-01-24T23:48:47.243Z,99.90
2018-01-24T23:51:13.474Z,99.90
2018-01-24T23:53:39.702Z,99.90
2018-01-24T23:56:05.919Z,99.90
2018-01-24T23:58:32.074Z,99.90
